createdAt,value
2019-04-03T00:02:10.516Z,55.72
2019-04-03T00:04:42.084Z,55.62
2019-04-03T00:07:13.757Z,55.25
2019-04-03T00:09:45.394Z,55.57
2019-04-03T00:12:16.997Z,56.41
2019-04-03T00:14:48.554Z,56.41
2019-04-03T00:17:20.189Z,56.30
2019-04-03T00:19:51.786Z,56.74
2019-04-03T00:22:23.363Z,56.79
2019-04-03T00:24:54.943Z,56.78
2019-04-03T00:27:26.554Z,56.71
2019-04-03T00:29:58.189Z,56.59
2019-04-03T00:32:29.745Z,56.83
2019-04-03T00:35:01.329Z,56.81
2019-04-03T00:37:33.024Z,56.75
2019-04-03T00:40:05.044Z,56.51
2019-04-03T00:42:36.628Z,56.60
2019-04-03T00:45:09.438Z,56.66
2019-04-03T00:47:41.053Z,57.41
2019-04-03T00:50:12.608Z,58.23
2019-04-03T00:52:44.311Z,58.06
2019-04-03T00:55:15.854Z,58.31
2019-04-03T00:57:47.493Z,58.00
2019-04-03T01:00:19.174Z,58.45
2019-04-03T01:02:50.826Z,58.68
2019-04-03T01:05:22.422Z,58.58
2019-04-03T01:07:54.153Z,58.57
2019-04-03T01:10:25.700Z,58.48
2019-04-03T01:12:57.284Z,58.65
2019-04-03T01:15:29.787Z,58.14
2019-04-03T01:18:04.634Z,58.21
2019-04-03T01:20:36.723Z,58.67
2019-04-03T01:23:08.336Z,59.00
2019-04-03T01:25:40.178Z,59.55
2019-04-03T01:28:12.002Z,59.46
2019-04-03T01:30:44.249Z,59.71
2019-04-03T01:33:16.716Z,59.93
2019-04-03T01:35:48.859Z,59.69
2019-04-03T01:38:20.431Z,60.13
2019-04-03T01:40:52.015Z,60.49
2019-04-03T01:43:23.778Z,61.10
2019-04-03T01:45:56.981Z,60.81
2019-04-03T01:48:28.926Z,61.58
2019-04-03T01:51:00.531Z,62.63
2019-04-03T01:53:32.761Z,64.29
2019-04-03T01:56:05.288Z,64.28
2019-04-03T01:58:36.984Z,64.78
2019-04-03T02:01:08.650Z,65.66
2019-04-03T02:03:41.691Z,62.54
2019-04-03T02:06:14.137Z,62.56
2019-04-03T02:08:45.705Z,62.01
2019-04-03T02:11:18.626Z,62.54
2019-04-03T02:13:51.351Z,61.83
2019-04-03T02:16:23.624Z,61.49
2019-04-03T02:18:55.971Z,62.41
2019-04-03T02:21:28.301Z,62.88
2019-04-03T02:24:01.255Z,64.27
2019-04-03T02:26:33.413Z,64.51
2019-04-03T02:29:06.644Z,64.76
2019-04-03T02:31:38.566Z,64.37
2019-04-03T02:34:10.106Z,63.33
2019-04-03T02:36:44.418Z,63.66
2019-04-03T02:39:14.952Z,64.57
2019-04-03T02:41:46.525Z,64.95
2019-04-03T02:44:19.802Z,66.28
2019-04-03T02:46:51.353Z,66.36
2019-04-03T02:49:23.014Z,66.81
2019-04-03T02:51:54.873Z,67.68
2019-04-03T02:54:34.828Z,69.52
2019-04-03T02:57:04.925Z,71.05
2019-04-03T02:59:36.565Z,70.04
2019-04-03T03:02:11.285Z,70.01
2019-04-03T03:04:41.690Z,70.34
2019-04-03T03:07:13.379Z,71.29
2019-04-03T03:09:47.569Z,71.32
2019-04-03T03:12:19.455Z,70.89
2019-04-03T03:14:51.441Z,71.25
2019-04-03T03:17:24.179Z,71.81
2019-04-03T03:19:57.034Z,71.79
2019-04-03T03:22:29.155Z,72.62
2019-04-03T03:25:01.353Z,72.85
2019-04-03T03:27:33.837Z,73.39
2019-04-03T03:30:28.961Z,73.51
2019-04-03T03:32:40.196Z,73.10
2019-04-03T03:35:16.600Z,73.38
2019-04-03T03:37:47.112Z,73.03
2019-04-03T03:40:18.772Z,73.04
2019-04-03T03:42:52.629Z,73.07
2019-04-03T03:45:24.222Z,72.86
2019-04-03T03:47:55.886Z,72.73
2019-04-03T03:50:27.983Z,72.76
2019-04-03T03:53:00.237Z,72.64
2019-04-03T03:55:31.922Z,72.01
2019-04-03T03:58:04.241Z,72.04
2019-04-03T04:00:35.965Z,72.09
2019-04-03T04:03:10.072Z,72.39
2019-04-03T04:05:41.136Z,72.20
2019-04-03T04:08:13.078Z,72.47
2019-04-03T04:10:45.155Z,72.89
2019-04-03T04:13:18.040Z,73.44
2019-04-03T04:15:49.769Z,72.95
2019-04-03T04:18:23.709Z,73.25
2019-04-03T04:20:54.949Z,72.90
2019-04-03T04:23:27.269Z,72.68
2019-04-03T04:25:59.016Z,72.87
2019-04-03T04:28:32.121Z,73.58
2019-04-03T04:31:03.902Z,73.15
2019-04-03T04:33:35.681Z,72.79
2019-04-03T04:36:07.355Z,73.13
2019-04-03T04:38:38.940Z,73.75
2019-04-03T04:41:10.551Z,73.54
2019-04-03T04:43:42.104Z,73.55
2019-04-03T04:46:14.065Z,73.94
2019-04-03T04:48:45.633Z,73.31
2019-04-03T04:51:17.211Z,73.05
2019-04-03T04:53:48.988Z,73.71
2019-04-03T04:56:21.045Z,74.58
2019-04-03T04:58:52.623Z,74.96
2019-04-03T05:01:24.270Z,74.80
2019-04-03T05:03:56.036Z,74.25
2019-04-03T05:06:29.604Z,74.50
2019-04-03T05:09:03.385Z,75.01
2019-04-03T05:11:34.303Z,74.94
2019-04-03T05:14:05.909Z,75.18
2019-04-03T05:16:37.492Z,75.56
2019-04-03T05:19:14.830Z,75.97
2019-04-03T05:21:42.397Z,75.95
2019-04-03T05:24:13.969Z,76.03
2019-04-03T05:26:45.641Z,76.20
2019-04-03T05:29:17.533Z,76.53
2019-04-03T05:31:49.061Z,76.77
2019-04-03T05:34:20.621Z,76.68
2019-04-03T05:36:52.173Z,76.65
2019-04-03T05:39:24.527Z,76.58
2019-04-03T05:41:58.508Z,76.45
2019-04-03T05:44:32.553Z,76.97
2019-04-03T05:47:02.893Z,77.31
2019-04-03T05:49:34.494Z,78.05
2019-04-03T05:52:06.074Z,78.27
2019-04-03T05:54:39.604Z,77.80
2019-04-03T05:57:11.891Z,77.92
2019-04-03T05:59:44.662Z,78.44
2019-04-03T06:02:20.030Z,78.30
2019-04-03T06:04:50.583Z,78.00
2019-04-03T06:07:22.192Z,78.42
2019-04-03T06:09:57.789Z,79.00
2019-04-03T06:12:27.047Z,79.27
2019-04-03T06:14:58.725Z,79.43
2019-04-03T06:17:30.320Z,79.65
2019-04-03T06:20:02.209Z,79.34
2019-04-03T06:22:33.749Z,79.50
2019-04-03T06:25:12.259Z,79.63
2019-04-03T06:27:43.022Z,79.41
2019-04-03T06:30:14.693Z,79.43
2019-04-03T06:32:46.256Z,79.30
2019-04-03T06:35:18.930Z,78.27
2019-04-03T06:37:52.508Z,78.75
2019-04-03T06:40:23.808Z,78.16
2019-04-03T06:42:55.385Z,78.00
2019-04-03T06:45:27.142Z,77.46
2019-04-03T06:47:58.725Z,77.17
2019-04-03T06:50:30.305Z,76.63
2019-04-03T06:53:01.854Z,76.87
2019-04-03T06:55:35.654Z,76.82
2019-04-03T06:58:06.807Z,76.34
2019-04-03T07:00:38.377Z,75.97
2019-04-03T07:03:09.981Z,75.99
2019-04-03T07:05:42.103Z,75.65
2019-04-03T07:08:13.710Z,75.32
2019-04-03T07:10:54.710Z,74.76
2019-04-03T07:13:20.478Z,73.34
2019-04-03T07:15:51.859Z,72.66
2019-04-03T07:18:23.755Z,73.09
2019-04-03T07:20:55.335Z,75.50
2019-04-03T07:23:29.947Z,75.68
2019-04-03T07:26:02.768Z,75.43
2019-04-03T07:28:34.479Z,75.40
2019-04-03T07:31:06.320Z,75.75
2019-04-03T07:33:37.953Z,76.33
2019-04-03T07:36:11.291Z,76.28
2019-04-03T07:38:42.833Z,76.84
2019-04-03T07:41:14.431Z,76.55
2019-04-03T07:43:45.998Z,76.45
2019-04-03T07:46:17.555Z,75.71
2019-04-03T07:48:49.344Z,75.66
2019-04-03T07:51:20.964Z,75.39
2019-04-03T07:53:53.693Z,73.33
2019-04-03T07:56:25.809Z,73.78
2019-04-03T07:58:58.415Z,72.61
2019-04-03T08:01:29.982Z,72.88
2019-04-03T08:04:01.625Z,69.93
2019-04-03T08:06:35.867Z,70.30
2019-04-03T08:09:10.358Z,69.27
2019-04-03T08:11:42.133Z,66.71
2019-04-03T08:14:13.765Z,66.69
2019-04-03T08:16:45.944Z,65.19
2019-04-03T08:19:18.627Z,67.58
2019-04-03T08:21:50.277Z,67.27
2019-04-03T08:24:21.879Z,67.39
2019-04-03T08:26:53.540Z,62.83
2019-04-03T08:29:25.104Z,63.79
2019-04-03T08:31:56.912Z,64.26
2019-04-03T08:34:30.886Z,64.79
2019-04-03T08:37:02.346Z,64.54
2019-04-03T08:39:34.114Z,66.12
2019-04-03T08:42:05.751Z,64.15
2019-04-03T08:44:37.705Z,64.37
2019-04-03T08:47:09.303Z,63.60
2019-04-03T08:49:40.959Z,64.35
2019-04-03T08:52:14.568Z,64.80
2019-04-03T08:54:46.023Z,63.14
2019-04-03T08:57:20.524Z,63.54
2019-04-03T08:59:52.483Z,63.86
2019-04-03T09:02:24.109Z,64.28
2019-04-03T09:04:56.813Z,63.61
2019-04-03T09:07:28.394Z,64.27
2019-04-03T09:10:00.885Z,64.45
2019-04-03T09:12:34.008Z,65.06
2019-04-03T09:15:06.583Z,65.60
2019-04-03T09:17:38.193Z,65.65
2019-04-03T09:20:12.886Z,65.88
2019-04-03T09:22:43.583Z,66.54
2019-04-03T09:25:15.417Z,66.72
2019-04-03T09:27:46.974Z,66.17
2019-04-03T09:30:20.153Z,67.15
2019-04-03T09:32:53.196Z,67.94
2019-04-03T09:35:25.434Z,66.68
2019-04-03T09:37:57.129Z,67.12
2019-04-03T09:40:29.764Z,67.70
2019-04-03T09:43:01.363Z,66.77
2019-04-03T09:45:33.369Z,66.06
2019-04-03T09:48:06.088Z,66.88
2019-04-03T09:50:37.878Z,66.01
2019-04-03T09:53:11.911Z,65.09
2019-04-03T09:55:43.522Z,64.99
2019-04-03T09:58:15.090Z,64.77
2019-04-03T10:00:46.734Z,65.50
2019-04-03T10:03:18.449Z,64.35
2019-04-03T10:05:50.001Z,64.78
2019-04-03T10:08:21.608Z,61.23
2019-04-03T10:10:53.476Z,60.32
2019-04-03T10:13:26.313Z,61.53
2019-04-03T10:15:58.272Z,63.50
2019-04-03T10:18:29.906Z,60.18
2019-04-03T10:21:01.494Z,63.31
2019-04-03T10:23:33.233Z,60.61
2019-04-03T10:26:07.606Z,60.47
2019-04-03T10:28:42.140Z,60.33
2019-04-03T10:31:12.755Z,60.71
2019-04-03T10:33:45.471Z,57.38
2019-04-03T10:36:18.137Z,59.21
2019-04-03T10:38:50.209Z,57.82
2019-04-03T10:41:21.765Z,57.07
2019-04-03T10:43:53.355Z,58.59
2019-04-03T10:46:24.922Z,57.68
2019-04-03T10:48:59.556Z,56.88
2019-04-03T10:51:31.703Z,57.00
2019-04-03T10:54:03.221Z,57.34
2019-04-03T10:56:35.073Z,55.63
2019-04-03T10:59:11.808Z,55.65
2019-04-03T11:01:40.319Z,54.94
2019-04-03T11:04:12.158Z,54.98
2019-04-03T11:06:44.828Z,56.36
2019-04-03T11:09:16.731Z,54.91
2019-04-03T11:11:48.571Z,55.07
2019-04-03T11:14:20.144Z,53.15
2019-04-03T11:16:51.705Z,53.75
2019-04-03T11:19:23.567Z,54.92
2019-04-03T11:21:56.445Z,51.60
2019-04-03T11:24:29.331Z,50.61
2019-04-03T11:27:01.316Z,50.35
2019-04-03T11:29:33.166Z,49.62
2019-04-03T11:32:05.663Z,49.93
2019-04-03T11:34:38.579Z,50.60
2019-04-03T11:37:10.136Z,50.63
2019-04-03T11:39:42.185Z,50.55
2019-04-03T11:42:23.226Z,50.19
2019-04-03T11:44:47.126Z,50.74
2019-04-03T11:47:18.990Z,49.08
2019-04-03T11:49:52.436Z,49.61
2019-04-03T11:52:23.967Z,51.30
2019-04-03T11:54:55.683Z,49.82
2019-04-03T11:57:27.689Z,49.15
2019-04-03T11:59:59.403Z,48.06
2019-04-03T12:02:30.990Z,49.79
2019-04-03T12:05:02.613Z,49.30
2019-04-03T12:07:34.187Z,48.19
2019-04-03T12:10:06.635Z,48.39
2019-04-03T12:12:38.469Z,48.80
2019-04-03T12:15:10.917Z,48.86
2019-04-03T12:17:42.575Z,49.63
2019-04-03T12:20:16.326Z,48.68
2019-04-03T12:22:48.158Z,49.36
2019-04-03T12:25:19.960Z,50.18
2019-04-03T12:27:51.555Z,49.69
2019-04-03T12:30:26.384Z,49.96
2019-04-03T12:32:57.937Z,49.13
2019-04-03T12:35:29.691Z,49.98
2019-04-03T12:38:01.410Z,48.98
2019-04-03T12:40:33.627Z,50.49
2019-04-03T12:43:05.423Z,49.64
2019-04-03T12:45:37.040Z,49.63
2019-04-03T12:48:08.935Z,49.76
2019-04-03T12:50:40.501Z,49.62
2019-04-03T12:53:15.764Z,48.47
2019-04-03T12:55:46.602Z,49.02
2019-04-03T12:58:18.210Z,49.76
2019-04-03T13:00:50.313Z,49.32
2019-04-03T13:03:23.871Z,49.42
2019-04-03T13:05:55.218Z,50.62
2019-04-03T13:08:27.269Z,50.93
2019-04-03T13:10:58.920Z,50.04
2019-04-03T13:13:30.628Z,49.83
2019-04-03T13:16:02.327Z,48.81
2019-04-03T13:18:34.452Z,49.18
2019-04-03T13:21:06.297Z,50.73
2019-04-03T13:23:39.922Z,53.38
2019-04-03T13:26:11.705Z,54.96
2019-04-03T13:28:43.594Z,56.08
2019-04-03T13:31:15.871Z,56.42
2019-04-03T13:33:47.852Z,56.97
2019-04-03T13:36:19.822Z,57.38
2019-04-03T13:38:51.826Z,57.15
2019-04-03T13:41:23.640Z,57.63
2019-04-03T13:43:55.274Z,58.62
2019-04-03T13:46:26.909Z,59.20
2019-04-03T13:48:58.546Z,57.92
2019-04-03T13:51:30.176Z,58.77
2019-04-03T13:54:01.751Z,58.90
2019-04-03T13:56:33.685Z,58.74
2019-04-03T13:59:05.919Z,59.47
2019-04-03T14:01:39.493Z,59.87
2019-04-03T14:04:10.849Z,58.86
2019-04-03T14:06:43.492Z,59.37
2019-04-03T14:09:17.219Z,58.88
2019-04-03T14:11:48.438Z,59.28
2019-04-03T14:14:20.101Z,58.61
2019-04-03T14:16:51.719Z,58.52
2019-04-03T14:19:25.132Z,58.14
2019-04-03T14:21:58.847Z,58.36
2019-04-03T14:24:39.294Z,58.07
2019-04-03T14:27:03.604Z,58.29
2019-04-03T14:29:37.127Z,58.58
2019-04-03T14:32:09.179Z,59.24
2019-04-03T14:34:40.836Z,60.22
2019-04-03T14:37:12.464Z,61.05
2019-04-03T14:39:44.104Z,61.25
2019-04-03T14:42:15.711Z,60.76
2019-04-03T14:44:47.336Z,60.98
2019-04-03T14:47:21.760Z,61.83
2019-04-03T14:49:52.273Z,61.31
2019-04-03T14:52:24.023Z,61.04
2019-04-03T14:54:56.769Z,61.30
2019-04-03T14:57:29.046Z,62.02
2019-04-03T15:00:03.102Z,61.36
2019-04-03T15:02:34.828Z,61.41
2019-04-03T15:05:08.732Z,61.41
2019-04-03T15:07:40.637Z,61.99
2019-04-03T15:10:12.890Z,61.21
2019-04-03T15:12:44.574Z,62.34
2019-04-03T15:15:16.268Z,61.93
2019-04-03T15:17:47.838Z,61.99
2019-04-03T15:20:19.944Z,62.10
2019-04-03T15:22:51.713Z,62.54
2019-04-03T15:25:23.835Z,63.02
2019-04-03T15:27:55.524Z,64.75
2019-04-03T15:30:27.172Z,65.34
2019-04-03T15:32:59.228Z,65.63
2019-04-03T15:35:32.163Z,64.66
2019-04-03T15:38:04.209Z,65.25
2019-04-03T15:40:36.257Z,65.39
2019-04-03T15:43:10.397Z,66.19
2019-04-03T15:45:41.164Z,66.90
2019-04-03T15:48:12.779Z,65.28
2019-04-03T15:50:44.494Z,65.46
2019-04-03T15:53:16.083Z,66.31
2019-04-03T15:55:48.028Z,66.49
2019-04-03T15:58:19.657Z,66.62
2019-04-03T16:00:51.486Z,66.60
2019-04-03T16:03:23.111Z,67.41
2019-04-03T16:05:54.726Z,67.46
2019-04-03T16:08:26.521Z,67.97
2019-04-03T16:10:58.880Z,67.53
2019-04-03T16:13:30.679Z,66.95
2019-04-03T16:16:03.839Z,64.69
2019-04-03T16:18:36.204Z,64.65
2019-04-03T16:21:08.936Z,64.22
2019-04-03T16:23:40.961Z,64.61
2019-04-03T16:26:12.608Z,64.47
2019-04-03T16:28:44.257Z,64.03
2019-04-03T16:31:16.037Z,66.19
2019-04-03T16:33:47.866Z,65.14
2019-04-03T16:36:19.817Z,67.19
2019-04-03T16:38:51.690Z,66.72
2019-04-03T16:41:23.417Z,67.08
2019-04-03T16:43:55.268Z,67.54
2019-04-03T16:46:26.937Z,67.23
2019-04-03T16:48:58.802Z,68.14
2019-04-03T16:51:31.724Z,69.79
2019-04-03T16:54:03.681Z,70.32
2019-04-03T16:56:38.136Z,70.95
2019-04-03T16:59:08.667Z,72.20
2019-04-03T17:01:40.238Z,72.18
2019-04-03T17:04:23.831Z,71.77
2019-04-03T17:06:47.582Z,73.12
2019-04-03T17:09:18.973Z,71.41
2019-04-03T17:11:51.157Z,72.89
2019-04-03T17:14:24.422Z,72.98
2019-04-03T17:16:56.216Z,73.77
2019-04-03T17:19:28.261Z,74.04
2019-04-03T17:21:59.830Z,74.75
2019-04-03T17:24:40.832Z,74.63
2019-04-03T17:27:04.731Z,75.49
2019-04-03T17:29:36.330Z,75.04
2019-04-03T17:32:08.995Z,75.20
2019-04-03T17:34:43.887Z,74.92
2019-04-03T17:37:18.650Z,76.01
2019-04-03T17:39:49.006Z,75.69
2019-04-03T17:42:20.648Z,75.44
2019-04-03T17:44:52.240Z,76.50
2019-04-03T17:47:23.847Z,75.94
2019-04-03T17:49:55.512Z,76.40
2019-04-03T17:52:27.094Z,75.61
2019-04-03T17:54:58.763Z,76.07
2019-04-03T17:57:30.355Z,75.32
2019-04-03T18:00:03.374Z,75.22
2019-04-03T18:02:37.149Z,76.31
2019-04-03T18:05:10.087Z,76.83
2019-04-03T18:07:41.736Z,76.45
2019-04-03T18:10:15.995Z,76.36
2019-04-03T18:12:47.650Z,75.40
2019-04-03T18:15:20.919Z,76.46
2019-04-03T18:17:52.537Z,75.98
2019-04-03T18:20:24.115Z,76.53
2019-04-03T18:22:55.735Z,76.19
2019-04-03T18:25:28.888Z,75.97
2019-04-03T18:28:00.667Z,75.93
2019-04-03T18:30:32.258Z,74.81
2019-04-03T18:33:05.775Z,74.52
2019-04-03T18:35:37.212Z,75.25
2019-04-03T18:38:08.784Z,75.21
2019-04-03T18:40:40.411Z,75.33
2019-04-03T18:43:12.020Z,74.93
2019-04-03T18:45:43.649Z,74.86
2019-04-03T18:48:16.596Z,75.45
2019-04-03T18:50:48.729Z,75.43
2019-04-03T18:53:20.298Z,75.37
2019-04-03T18:55:51.892Z,74.96
2019-04-03T18:58:23.821Z,74.92
2019-04-03T19:00:56.013Z,75.09
2019-04-03T19:03:27.660Z,74.85
2019-04-03T19:05:59.979Z,74.61
2019-04-03T19:08:31.743Z,74.89
2019-04-03T19:11:09.351Z,74.67
2019-04-03T19:13:37.079Z,74.37
2019-04-03T19:16:09.070Z,74.42
2019-04-03T19:18:40.797Z,74.49
2019-04-03T19:21:24.090Z,74.02
2019-04-03T19:23:49.846Z,74.09
2019-04-03T19:26:19.067Z,74.52
2019-04-03T19:28:50.638Z,74.39
2019-04-03T19:31:22.266Z,74.60
2019-04-03T19:33:53.915Z,75.23
2019-04-03T19:36:29.652Z,75.50
2019-04-03T19:38:59.939Z,75.57
2019-04-03T19:41:31.565Z,75.43
2019-04-03T19:44:03.165Z,74.84
2019-04-03T19:46:34.811Z,74.60
2019-04-03T19:49:06.703Z,74.96
2019-04-03T19:51:38.317Z,75.10
2019-04-03T19:54:11.682Z,74.93
2019-04-03T19:56:44.369Z,74.95
2019-04-03T19:59:17.507Z,74.93
2019-04-03T20:01:49.181Z,75.26
2019-04-03T20:04:20.819Z,75.56
2019-04-03T20:06:52.922Z,75.66
2019-04-03T20:09:25.764Z,75.50
2019-04-03T20:11:59.092Z,75.79
2019-04-03T20:14:30.697Z,74.99
2019-04-03T20:17:02.263Z,75.53
2019-04-03T20:19:33.975Z,75.31
2019-04-03T20:22:07.085Z,75.67
2019-04-03T20:24:38.965Z,75.89
2019-04-03T20:27:12.365Z,75.35
2019-04-03T20:29:44.005Z,75.88
2019-04-03T20:32:15.619Z,76.01
2019-04-03T20:34:47.223Z,75.79
2019-04-03T20:37:18.867Z,76.01
2019-04-03T20:39:50.718Z,75.72
2019-04-03T20:42:22.346Z,75.88
2019-04-03T20:44:53.965Z,76.12
2019-04-03T20:47:26.888Z,75.77
2019-04-03T20:49:58.883Z,75.78
2019-04-03T20:52:31.514Z,74.41
2019-04-03T20:55:03.130Z,74.58
2019-04-03T20:57:34.743Z,74.90
2019-04-03T21:00:11.846Z,74.73
2019-04-03T21:02:43.809Z,73.79
2019-04-03T21:05:17.833Z,73.95
2019-04-03T21:07:48.968Z,73.50
2019-04-03T21:10:20.610Z,73.78
2019-04-03T21:12:52.190Z,73.65
2019-04-03T21:15:23.771Z,73.11
2019-04-03T21:17:55.376Z,73.10
2019-04-03T21:20:26.994Z,73.49
2019-04-03T21:22:58.593Z,73.51
2019-04-03T21:25:31.278Z,72.78
2019-04-03T21:28:02.851Z,73.36
2019-04-03T21:30:34.526Z,73.16
2019-04-03T21:33:06.131Z,73.91
2019-04-03T21:35:37.778Z,73.72
2019-04-03T21:38:10.847Z,73.52
2019-04-03T21:40:42.626Z,73.81
2019-04-03T21:43:14.199Z,73.47
2019-04-03T21:45:45.756Z,72.95
2019-04-03T21:48:17.373Z,72.84
2019-04-03T21:50:49.777Z,73.79
2019-04-03T21:53:24.195Z,73.87
2019-04-03T21:55:55.257Z,73.16
2019-04-03T21:58:26.854Z,73.46
2019-04-03T22:01:23.486Z,73.55
2019-04-03T22:03:55.076Z,73.46
2019-04-03T22:06:27.711Z,73.31
2019-04-03T22:09:00.582Z,73.63
2019-04-03T22:11:35.564Z,73.44
2019-04-03T22:14:10.687Z,72.55
2019-04-03T22:16:40.930Z,72.61
2019-04-03T22:19:12.546Z,73.06
2019-04-03T22:21:44.118Z,73.42
2019-04-03T22:24:15.708Z,73.45
2019-04-03T22:26:47.289Z,72.76
2019-04-03T22:29:20.458Z,73.64
2019-04-03T22:31:54.430Z,74.21
2019-04-03T22:34:25.505Z,74.33
2019-04-03T22:36:57.068Z,74.41
2019-04-03T22:39:28.685Z,74.76
2019-04-03T22:42:00.268Z,75.15
2019-04-03T22:44:31.866Z,75.21
2019-04-03T22:47:03.411Z,74.80
2019-04-03T22:49:35.051Z,73.95
2019-04-03T22:52:06.876Z,74.69
2019-04-03T22:54:39.907Z,74.75
2019-04-03T22:57:11.514Z,73.52
2019-04-03T22:59:44.134Z,73.30
2019-04-03T23:02:15.654Z,74.04
2019-04-03T23:04:47.213Z,74.72
2019-04-03T23:07:20.838Z,74.60
2019-04-03T23:09:52.114Z,75.41
2019-04-03T23:12:23.688Z,75.97
2019-04-03T23:14:55.263Z,75.24
2019-04-03T23:17:26.788Z,75.21
2019-04-03T23:19:58.418Z,74.49
2019-04-03T23:22:29.963Z,74.31
2019-04-03T23:25:01.550Z,74.42
2019-04-03T23:27:33.525Z,74.20
2019-04-03T23:30:05.452Z,73.89
2019-04-03T23:32:37.042Z,74.33
2019-04-03T23:35:08.723Z,73.90
2019-04-03T23:37:40.309Z,73.80
2019-04-03T23:40:12.371Z,73.92
2019-04-03T23:42:43.936Z,73.87
2019-04-03T23:45:16.644Z,74.56
2019-04-03T23:47:48.228Z,74.19
2019-04-03T23:50:21.650Z,74.71
2019-04-03T23:52:53.164Z,74.91
2019-04-03T23:55:24.721Z,75.65
2019-04-03T23:57:56.296Z,75.68
